createdAt,value
2022-12-29T00:01:02.601Z,5.30
2022-12-29T00:03:30.857Z,5.80
2022-12-29T00:05:59.633Z,6.30
2022-12-29T00:08:42.895Z,6.00
2022-12-29T00:11:21.922Z,5.60
2022-12-29T00:14:08.487Z,5.50
2022-12-29T00:16:37.297Z,5.10
2022-12-29T00:19:05.782Z,5.90
2022-12-29T00:21:52.703Z,5.10
2022-12-29T00:24:27.900Z,4.80
2022-12-29T00:27:24.069Z,5.20
2022-12-29T00:30:12.109Z,6.70
2022-12-29T00:32:59.200Z,6.60
2022-12-29T00:35:36.647Z,6.10
2022-12-29T00:38:25.174Z,4.90
2022-12-29T00:41:12.161Z,6.60
2022-12-29T00:43:59.204Z,6.50
2022-12-29T00:46:27.358Z,6.20
2022-12-29T00:49:14.399Z,6.30
2022-12-29T00:51:42.557Z,5.30
2022-12-29T00:54:11.010Z,6.10
2022-12-29T00:56:39.225Z,6.30
2022-12-29T00:59:08.756Z,5.00
2022-12-29T01:01:37.888Z,5.60
2022-12-29T01:04:06.872Z,5.10
2022-12-29T01:06:36.459Z,6.90
2022-12-29T01:09:23.907Z,5.80
2022-12-29T01:11:52.192Z,5.10
2022-12-29T01:14:20.987Z,5.70
2022-12-29T01:16:49.276Z,7.40
2022-12-29T01:19:19.463Z,6.40
2022-12-29T01:21:48.093Z,5.40
2022-12-29T01:24:17.028Z,5.70
2022-12-29T01:26:45.381Z,5.70
2022-12-29T01:29:13.931Z,5.20
2022-12-29T01:31:42.419Z,5.30
2022-12-29T01:34:10.689Z,5.30
2022-12-29T01:36:39.815Z,5.80
2022-12-29T01:39:07.871Z,6.20
2022-12-29T01:41:36.342Z,5.20
2022-12-29T01:44:24.525Z,6.20
2022-12-29T01:46:52.774Z,5.40
2022-12-29T01:49:23.241Z,7.80
2022-12-29T01:51:59.450Z,7.20
2022-12-29T01:54:37.542Z,6.30
2022-12-29T01:57:07.651Z,5.10
2022-12-29T01:59:37.147Z,5.70
2022-12-29T02:02:06.367Z,6.20
2022-12-29T02:04:36.404Z,5.70
2022-12-29T02:07:06.667Z,6.90
2022-12-29T02:09:36.092Z,5.60
2022-12-29T02:12:04.865Z,6.20
2022-12-29T02:14:33.117Z,6.50
2022-12-29T02:17:08.463Z,5.20
2022-12-29T02:19:52.317Z,6.10
2022-12-29T02:22:31.600Z,6.40
2022-12-29T02:25:18.626Z,5.20
2022-12-29T02:28:09.733Z,5.80
2022-12-29T02:30:37.910Z,5.30
2022-12-29T02:33:05.874Z,4.50
2022-12-29T02:35:57.296Z,5.90
2022-12-29T02:38:25.350Z,5.80
2022-12-29T02:40:59.367Z,5.40
2022-12-29T02:43:28.170Z,6.30
2022-12-29T02:46:21.326Z,5.80
2022-12-29T02:49:08.023Z,5.40
2022-12-29T02:51:56.507Z,6.20
2022-12-29T02:54:43.609Z,4.50
2022-12-29T02:57:18.310Z,5.50
2022-12-29T03:02:24.099Z,5.50
2022-12-29T03:05:02.488Z,6.70
2022-12-29T03:07:41.198Z,5.80
2022-12-29T03:10:12.245Z,5.30
2022-12-29T03:13:08.495Z,5.30
2022-12-29T03:16:06.711Z,5.80
2022-12-29T03:18:42.577Z,5.40
2022-12-29T03:21:13.736Z,5.70
2022-12-29T03:23:45.083Z,5.80
2022-12-29T03:26:14.172Z,5.60
2022-12-29T03:28:54.248Z,6.60
2022-12-29T03:31:25.581Z,5.80
2022-12-29T03:33:56.721Z,5.70
2022-12-29T03:36:29.146Z,6.00
2022-12-29T03:39:10.206Z,6.60
2022-12-29T03:41:39.849Z,7.10
2022-12-29T03:44:09.624Z,4.80
2022-12-29T03:46:37.717Z,6.00
2022-12-29T03:49:05.867Z,6.60
2022-12-29T03:51:34.321Z,6.30
2022-12-29T03:54:03.805Z,6.50
2022-12-29T03:56:32.385Z,6.30
2022-12-29T03:59:00.449Z,6.40
2022-12-29T04:01:33.144Z,6.70
2022-12-29T04:04:01.235Z,5.70
2022-12-29T04:06:32.157Z,6.00
2022-12-29T04:09:07.332Z,5.40
2022-12-29T04:11:40.967Z,7.70
2022-12-29T04:14:09.545Z,7.30
2022-12-29T04:16:40.061Z,6.70
2022-12-29T04:19:09.272Z,8.50
2022-12-29T04:21:38.674Z,8.50
2022-12-29T04:24:10.117Z,6.90
2022-12-29T04:26:42.684Z,5.50
2022-12-29T04:29:43.027Z,7.50
2022-12-29T04:32:11.110Z,6.00
2022-12-29T04:34:44.482Z,8.20
2022-12-29T04:37:12.638Z,6.70
2022-12-29T04:39:40.810Z,6.10
2022-12-29T04:42:09.733Z,7.40
2022-12-29T04:44:44.727Z,6.70
2022-12-29T04:47:22.441Z,8.80
2022-12-29T04:50:25.725Z,8.10
2022-12-29T04:53:06.577Z,7.00
2022-12-29T04:55:34.746Z,6.70
2022-12-29T04:58:02.798Z,7.70
2022-12-29T05:00:33.564Z,7.70
2022-12-29T05:03:02.819Z,6.50
2022-12-29T05:05:31.955Z,6.80
2022-12-29T05:08:00.522Z,6.10
2022-12-29T05:10:29.264Z,6.90
2022-12-29T05:13:01.992Z,7.40
2022-12-29T05:15:30.497Z,10.20
2022-12-29T05:17:59.386Z,8.90
2022-12-29T05:20:28.683Z,6.30
2022-12-29T05:22:58.887Z,6.50
2022-12-29T05:25:27.121Z,6.30
2022-12-29T05:28:04.324Z,7.20
2022-12-29T05:30:48.906Z,6.50
2022-12-29T05:33:18.811Z,6.50
2022-12-29T05:35:47.257Z,5.40
2022-12-29T05:38:15.784Z,5.90
2022-12-29T05:40:44.433Z,6.20
2022-12-29T05:43:38.681Z,6.00
2022-12-29T05:46:29.872Z,6.00
2022-12-29T05:49:19.245Z,5.60
2022-12-29T05:51:57.045Z,7.60
2022-12-29T05:54:25.174Z,5.90
2022-12-29T05:56:53.734Z,7.20
2022-12-29T05:59:22.260Z,7.70
2022-12-29T06:01:50.844Z,5.90
2022-12-29T06:04:19.225Z,6.70
2022-12-29T06:06:47.269Z,5.00
2022-12-29T06:09:26.332Z,6.20
2022-12-29T06:11:55.754Z,7.30
2022-12-29T06:14:24.507Z,6.10
2022-12-29T06:16:52.774Z,5.50
2022-12-29T06:19:21.312Z,6.10
2022-12-29T06:21:50.229Z,9.00
2022-12-29T06:24:18.262Z,6.90
2022-12-29T06:26:46.345Z,8.20
2022-12-29T06:29:18.067Z,9.40
2022-12-29T06:31:50.603Z,6.10
2022-12-29T06:34:18.744Z,6.30
2022-12-29T06:36:47.526Z,10.70
2022-12-29T06:39:15.876Z,7.70
2022-12-29T06:41:55.375Z,6.70
2022-12-29T06:47:07.557Z,7.40
2022-12-29T06:49:35.913Z,7.30
2022-12-29T06:52:10.816Z,5.90
2022-12-29T06:54:40.953Z,7.10
2022-12-29T06:57:09.032Z,7.40
2022-12-29T06:59:37.102Z,4.90
2022-12-29T07:02:05.339Z,6.20
2022-12-29T07:04:33.621Z,6.80
2022-12-29T07:07:01.625Z,8.60
2022-12-29T07:09:29.918Z,7.50
2022-12-29T07:11:58.747Z,6.90
2022-12-29T07:14:26.762Z,7.50
2022-12-29T07:16:54.924Z,5.40
2022-12-29T07:19:22.994Z,5.80
2022-12-29T07:21:50.941Z,5.90
2022-12-29T07:24:19.032Z,6.80
2022-12-29T07:26:47.080Z,8.30
2022-12-29T07:29:15.514Z,6.30
2022-12-29T07:31:44.052Z,7.90
2022-12-29T07:34:12.651Z,6.80
2022-12-29T07:36:40.757Z,6.40
2022-12-29T07:39:08.960Z,6.30
2022-12-29T07:41:37.394Z,7.70
2022-12-29T07:44:05.736Z,8.50
2022-12-29T07:46:55.809Z,7.50
2022-12-29T07:49:25.596Z,7.10
2022-12-29T07:51:53.731Z,10.80
2022-12-29T07:54:23.669Z,9.20
2022-12-29T07:56:52.661Z,8.60
2022-12-29T07:59:20.803Z,7.20
2022-12-29T08:01:49.150Z,7.50
2022-12-29T08:04:17.313Z,7.50
2022-12-29T08:06:46.715Z,6.90
2022-12-29T08:09:19.760Z,7.90
2022-12-29T08:11:50.344Z,8.70
2022-12-29T08:14:18.455Z,8.40
2022-12-29T08:16:46.672Z,7.30
2022-12-29T08:19:14.908Z,10.90
2022-12-29T08:21:42.985Z,10.20
2022-12-29T08:24:11.156Z,10.70
2022-12-29T08:26:39.347Z,9.40
2022-12-29T08:29:07.853Z,12.50
2022-12-29T08:31:36.149Z,11.40
2022-12-29T08:34:04.568Z,9.80
2022-12-29T08:36:32.708Z,14.70
2022-12-29T08:39:00.842Z,12.50
2022-12-29T08:41:29.092Z,11.30
2022-12-29T08:43:57.271Z,9.70
2022-12-29T08:46:25.306Z,10.30
2022-12-29T08:48:54.043Z,16.00
2022-12-29T08:51:24.668Z,15.60
2022-12-29T08:53:53.444Z,12.90
2022-12-29T08:56:22.105Z,11.70
2022-12-29T08:58:52.125Z,14.20
2022-12-29T09:01:21.905Z,12.90
2022-12-29T09:06:40.703Z,11.50
2022-12-29T09:09:08.980Z,8.40
2022-12-29T09:11:37.174Z,10.20
2022-12-29T09:14:05.594Z,11.20
2022-12-29T09:16:34.552Z,12.30
2022-12-29T09:19:03.332Z,12.20
2022-12-29T09:21:31.552Z,16.70
2022-12-29T09:24:00.138Z,8.10
2022-12-29T09:26:28.233Z,9.30
2022-12-29T09:28:56.288Z,11.50
2022-12-29T09:31:26.420Z,15.30
2022-12-29T09:33:54.833Z,10.60
2022-12-29T09:36:23.116Z,12.40
2022-12-29T09:38:54.344Z,9.50
2022-12-29T09:41:27.936Z,9.10
2022-12-29T09:44:00.575Z,9.80
2022-12-29T09:46:30.099Z,9.90
2022-12-29T09:49:07.484Z,9.50
2022-12-29T09:51:38.208Z,10.40
2022-12-29T09:54:26.569Z,8.80
2022-12-29T09:56:55.017Z,10.70
2022-12-29T09:59:34.194Z,8.60
2022-12-29T10:02:21.652Z,8.80
2022-12-29T10:04:50.068Z,9.40
2022-12-29T10:07:29.991Z,9.00
2022-12-29T10:10:08.929Z,10.70
2022-12-29T10:12:40.230Z,10.20
2022-12-29T10:15:14.555Z,11.10
2022-12-29T10:17:59.341Z,10.80
2022-12-29T10:20:31.379Z,10.10
2022-12-29T10:23:18.655Z,8.90
2022-12-29T10:25:46.993Z,10.50
2022-12-29T10:28:18.125Z,9.20
2022-12-29T10:30:47.609Z,9.90
2022-12-29T10:33:20.963Z,9.40
2022-12-29T10:35:49.080Z,11.10
2022-12-29T10:38:26.749Z,10.10
2022-12-29T10:40:58.756Z,12.20
2022-12-29T10:43:28.431Z,12.00
2022-12-29T10:46:02.276Z,10.30
2022-12-29T10:48:32.327Z,8.20
2022-12-29T10:51:02.169Z,9.70
2022-12-29T10:53:52.750Z,11.30
2022-12-29T10:56:27.047Z,8.80
2022-12-29T10:58:56.189Z,10.30
2022-12-29T11:01:26.695Z,9.00
2022-12-29T11:04:00.821Z,8.90
2022-12-29T11:06:30.541Z,10.10
2022-12-29T11:09:00.472Z,13.40
2022-12-29T11:11:33.682Z,13.10
2022-12-29T11:14:15.699Z,10.70
2022-12-29T11:16:45.470Z,10.70
2022-12-29T11:19:43.040Z,9.60
2022-12-29T11:22:16.378Z,9.80
2022-12-29T11:24:46.408Z,8.60
2022-12-29T11:27:17.509Z,9.00
2022-12-29T11:29:46.052Z,9.80
2022-12-29T11:32:24.149Z,8.20
2022-12-29T11:34:56.919Z,9.40
2022-12-29T11:37:29.863Z,9.40
2022-12-29T11:40:01.026Z,9.30
2022-12-29T11:42:35.475Z,9.60
2022-12-29T11:45:23.679Z,8.90
2022-12-29T11:47:57.771Z,9.10
2022-12-29T11:50:28.434Z,9.60
2022-12-29T11:53:00.942Z,8.40
2022-12-29T11:55:30.159Z,8.70
2022-12-29T11:58:00.012Z,9.80
2022-12-29T12:00:29.947Z,8.30
2022-12-29T12:03:03.290Z,8.90
2022-12-29T12:08:00.404Z,8.80
2022-12-29T12:10:31.413Z,9.10
2022-12-29T12:13:18.689Z,7.50
2022-12-29T12:15:57.283Z,7.40
2022-12-29T12:18:38.127Z,9.10
2022-12-29T12:21:18.568Z,9.30
2022-12-29T12:24:02.108Z,9.10
2022-12-29T12:26:36.703Z,8.00
2022-12-29T12:29:23.558Z,7.80
2022-12-29T12:32:05.544Z,8.60
2022-12-29T12:34:37.301Z,8.70
2022-12-29T12:37:08.561Z,8.30
2022-12-29T12:39:39.807Z,9.50
2022-12-29T12:42:23.637Z,10.30
2022-12-29T12:45:12.858Z,8.10
2022-12-29T12:47:41.112Z,9.30
2022-12-29T12:50:28.181Z,10.60
2022-12-29T12:53:02.505Z,9.40
2022-12-29T12:55:43.394Z,13.40
2022-12-29T12:58:11.643Z,12.50
2022-12-29T13:01:00.181Z,10.50
2022-12-29T13:03:34.490Z,8.90
2022-12-29T13:06:21.254Z,10.70
2022-12-29T13:09:08.136Z,11.30
2022-12-29T13:11:44.536Z,12.50
2022-12-29T13:14:38.931Z,11.10
2022-12-29T13:17:07.141Z,9.30
2022-12-29T13:19:43.554Z,7.40
2022-12-29T13:22:18.434Z,8.30
2022-12-29T13:25:01.361Z,8.00
2022-12-29T13:27:35.269Z,11.70
2022-12-29T13:30:07.006Z,9.30
2022-12-29T13:32:55.244Z,9.00
2022-12-29T13:35:42.285Z,9.30
2022-12-29T13:38:25.326Z,10.40
2022-12-29T13:41:00.828Z,10.40
2022-12-29T13:43:31.204Z,10.10
2022-12-29T13:46:11.355Z,8.70
2022-12-29T13:48:52.755Z,10.50
2022-12-29T13:51:27.670Z,12.40
2022-12-29T13:53:59.569Z,10.50
2022-12-29T13:56:48.547Z,10.70
2022-12-29T13:59:42.229Z,9.90
2022-12-29T14:02:28.473Z,10.20
2022-12-29T14:05:01.196Z,9.20
2022-12-29T14:07:30.425Z,10.70
2022-12-29T14:09:58.805Z,8.20
2022-12-29T14:12:26.850Z,7.60
2022-12-29T14:14:55.044Z,9.20
2022-12-29T14:17:23.168Z,8.60
2022-12-29T14:19:53.629Z,10.70
2022-12-29T14:22:32.382Z,9.80
2022-12-29T14:25:01.378Z,10.60
2022-12-29T14:27:29.365Z,9.40
2022-12-29T14:29:57.801Z,14.50
2022-12-29T14:32:26.337Z,12.20
2022-12-29T14:34:58.548Z,10.30
2022-12-29T14:37:34.187Z,13.30
2022-12-29T14:40:05.546Z,15.60
2022-12-29T14:42:34.023Z,12.70
2022-12-29T14:45:02.249Z,14.20
2022-12-29T14:47:38.968Z,14.50
2022-12-29T14:50:18.841Z,13.80
2022-12-29T14:53:02.136Z,15.30
2022-12-29T14:55:48.403Z,15.00
2022-12-29T14:58:16.500Z,11.00
2022-12-29T15:00:45.595Z,12.10
2022-12-29T15:03:30.087Z,13.20
2022-12-29T15:08:27.852Z,12.00
2022-12-29T15:10:58.336Z,15.10
2022-12-29T15:13:34.368Z,12.50
2022-12-29T15:16:02.490Z,10.60
2022-12-29T15:18:31.371Z,13.30
2022-12-29T15:21:06.404Z,13.00
2022-12-29T15:23:35.998Z,12.40
2022-12-29T15:26:05.418Z,13.30
2022-12-29T15:28:44.079Z,11.10
2022-12-29T15:31:16.763Z,11.20
2022-12-29T15:33:48.545Z,13.80
2022-12-29T15:36:21.944Z,12.40
2022-12-29T15:38:51.004Z,11.60
2022-12-29T15:41:28.455Z,10.60
2022-12-29T15:44:04.144Z,13.00
2022-12-29T15:46:32.897Z,14.20
2022-12-29T15:49:05.711Z,15.40
2022-12-29T15:51:40.977Z,13.00
2022-12-29T15:54:19.634Z,12.40
2022-12-29T15:56:48.119Z,9.60
2022-12-29T15:59:26.750Z,9.40
2022-12-29T16:01:58.643Z,11.10
2022-12-29T16:04:28.564Z,10.50
2022-12-29T16:06:56.848Z,10.90
2022-12-29T16:09:35.094Z,11.00
2022-12-29T16:12:04.933Z,10.80
2022-12-29T16:14:42.173Z,10.00
2022-12-29T16:17:13.179Z,11.70
2022-12-29T16:19:42.206Z,9.80
2022-12-29T16:22:12.343Z,11.50
2022-12-29T16:24:41.407Z,14.10
2022-12-29T16:27:28.344Z,10.80
2022-12-29T16:29:56.680Z,11.80
2022-12-29T16:32:28.835Z,10.70
2022-12-29T16:35:15.093Z,11.20
2022-12-29T16:37:43.150Z,12.50
2022-12-29T16:40:31.546Z,14.60
2022-12-29T16:43:01.030Z,15.90
2022-12-29T16:45:41.314Z,12.30
2022-12-29T16:48:19.566Z,14.10
2022-12-29T16:50:48.051Z,16.90
2022-12-29T16:53:27.432Z,13.20
2022-12-29T16:55:56.567Z,12.30
2022-12-29T16:58:33.079Z,15.50
2022-12-29T17:01:01.497Z,13.50
2022-12-29T17:03:39.897Z,11.80
2022-12-29T17:06:14.820Z,10.10
2022-12-29T17:08:43.717Z,9.00
2022-12-29T17:11:39.933Z,13.30
2022-12-29T17:14:34.735Z,10.90
2022-12-29T17:19:35.683Z,10.70
2022-12-29T17:22:04.376Z,11.20
2022-12-29T17:24:32.451Z,12.00
2022-12-29T17:27:01.133Z,11.10
2022-12-29T17:29:37.621Z,11.70
2022-12-29T17:32:06.885Z,9.10
2022-12-29T17:34:34.936Z,13.00
2022-12-29T17:37:03.505Z,14.40
2022-12-29T17:39:31.579Z,13.50
2022-12-29T17:41:59.614Z,12.40
2022-12-29T17:44:27.680Z,11.60
2022-12-29T17:46:55.936Z,11.90
2022-12-29T17:49:23.992Z,12.50
2022-12-29T17:51:52.089Z,13.90
2022-12-29T17:54:22.336Z,16.70
2022-12-29T17:56:50.444Z,18.80
2022-12-29T17:59:18.712Z,15.40
2022-12-29T18:01:48.162Z,12.60
2022-12-29T18:04:18.117Z,12.80
2022-12-29T18:06:46.821Z,23.00
2022-12-29T18:09:15.121Z,16.60
2022-12-29T18:11:43.913Z,13.00
2022-12-29T18:14:13.573Z,17.60
2022-12-29T18:16:41.757Z,16.00
2022-12-29T18:19:09.959Z,12.60
2022-12-29T18:21:38.577Z,11.00
2022-12-29T18:24:06.981Z,14.60
2022-12-29T18:26:36.107Z,11.70
2022-12-29T18:29:04.202Z,12.90
2022-12-29T18:31:33.612Z,12.90
2022-12-29T18:34:03.331Z,13.00
2022-12-29T18:36:31.431Z,11.60
2022-12-29T18:38:59.474Z,11.60
2022-12-29T18:41:31.538Z,11.30
2022-12-29T18:44:00.099Z,12.20
2022-12-29T18:46:29.105Z,15.80
2022-12-29T18:48:57.260Z,12.60
2022-12-29T18:51:25.699Z,13.20
2022-12-29T18:53:54.574Z,13.40
2022-12-29T18:56:23.579Z,11.10
2022-12-29T18:58:53.719Z,11.70
2022-12-29T19:01:24.518Z,12.70
2022-12-29T19:03:52.671Z,13.60
2022-12-29T19:06:21.572Z,10.30
2022-12-29T19:08:49.756Z,10.40
2022-12-29T19:11:18.115Z,12.70
2022-12-29T19:13:46.177Z,14.30
2022-12-29T19:16:21.819Z,14.70
2022-12-29T19:19:07.408Z,12.50
2022-12-29T19:21:37.029Z,13.30
2022-12-29T19:24:05.435Z,12.70
2022-12-29T19:26:36.284Z,11.40
2022-12-29T19:29:05.663Z,13.10
2022-12-29T19:31:33.927Z,16.40
2022-12-29T19:34:03.345Z,17.30
2022-12-29T19:36:31.628Z,18.50
2022-12-29T19:38:59.958Z,16.80
2022-12-29T19:41:27.995Z,20.00
2022-12-29T19:43:56.051Z,22.70
2022-12-29T19:46:25.705Z,17.80
2022-12-29T19:48:59.105Z,18.60
2022-12-29T19:51:27.629Z,20.90
2022-12-29T19:53:56.072Z,15.90
2022-12-29T19:56:24.475Z,21.80
2022-12-29T19:58:52.642Z,30.70
2022-12-29T20:01:22.678Z,26.40
2022-12-29T20:03:51.937Z,39.00
2022-12-29T20:06:20.390Z,20.70
2022-12-29T20:08:48.751Z,19.90
2022-12-29T20:11:18.109Z,22.90
2022-12-29T20:13:47.148Z,28.10
2022-12-29T20:16:16.954Z,28.10
2022-12-29T20:18:45.831Z,25.20
2022-12-29T20:21:15.458Z,25.50
2022-12-29T20:23:44.219Z,21.90
2022-12-29T20:26:16.766Z,18.00
2022-12-29T20:28:45.190Z,24.60
2022-12-29T20:31:30.864Z,26.50
2022-12-29T20:33:59.439Z,23.20
2022-12-29T20:36:28.759Z,27.10
2022-12-29T20:38:57.591Z,26.60
2022-12-29T20:41:26.128Z,29.90
2022-12-29T20:43:54.705Z,25.40
2022-12-29T20:46:28.084Z,21.00
2022-12-29T20:49:00.777Z,19.10
2022-12-29T20:51:55.284Z,18.70
2022-12-29T20:54:19.111Z,18.70
2022-12-29T20:56:47.234Z,22.50
2022-12-29T20:59:31.237Z,24.40
2022-12-29T21:01:59.551Z,24.00
2022-12-29T21:04:38.446Z,23.20
2022-12-29T21:07:19.921Z,25.10
2022-12-29T21:09:48.374Z,24.50
2022-12-29T21:12:16.415Z,20.70
2022-12-29T21:14:46.053Z,22.00
2022-12-29T21:17:14.355Z,38.00
2022-12-29T21:19:42.363Z,33.60
2022-12-29T21:22:10.403Z,24.50
2022-12-29T21:24:38.914Z,31.30
2022-12-29T21:27:07.291Z,23.30
2022-12-29T21:29:35.304Z,22.10
2022-12-29T21:32:06.611Z,23.10
2022-12-29T21:34:35.264Z,29.60
2022-12-29T21:37:03.389Z,23.50
2022-12-29T21:39:31.490Z,24.80
2022-12-29T21:42:00.569Z,28.10
2022-12-29T21:44:47.602Z,21.60
2022-12-29T21:47:15.709Z,17.20
2022-12-29T21:49:43.824Z,15.60
2022-12-29T21:52:11.898Z,16.00
2022-12-29T21:54:58.732Z,17.00
2022-12-29T21:57:45.520Z,16.50
2022-12-29T22:00:32.561Z,14.80
2022-12-29T22:03:23.367Z,14.90
2022-12-29T22:06:11.638Z,16.20
2022-12-29T22:08:58.938Z,12.60
2022-12-29T22:11:45.925Z,14.50
2022-12-29T22:14:13.981Z,14.30
2022-12-29T22:16:42.068Z,15.40
2022-12-29T22:19:11.315Z,15.80
2022-12-29T22:21:39.338Z,15.90
2022-12-29T22:24:08.899Z,15.20
2022-12-29T22:26:37.045Z,15.30
2022-12-29T22:29:05.322Z,15.10
2022-12-29T22:31:34.042Z,15.60
2022-12-29T22:34:04.027Z,16.90
2022-12-29T22:36:32.589Z,14.90
2022-12-29T22:39:01.002Z,14.40
2022-12-29T22:41:29.085Z,16.20
2022-12-29T22:43:57.278Z,18.80
2022-12-29T22:46:25.496Z,17.10
2022-12-29T22:48:53.761Z,16.10
2022-12-29T22:51:21.800Z,15.90
2022-12-29T22:53:50.402Z,16.80
2022-12-29T22:56:18.675Z,14.90
2022-12-29T22:58:47.402Z,14.70
2022-12-29T23:01:16.682Z,15.80
2022-12-29T23:03:45.331Z,17.30
2022-12-29T23:06:14.081Z,17.60
2022-12-29T23:08:43.531Z,16.60
2022-12-29T23:11:12.816Z,15.10
2022-12-29T23:13:41.872Z,13.70
2022-12-29T23:16:10.000Z,14.50
2022-12-29T23:18:38.234Z,14.40
2022-12-29T23:21:06.419Z,14.60
2022-12-29T23:23:53.283Z,16.00
2022-12-29T23:26:32.655Z,12.20
2022-12-29T23:29:01.570Z,16.50
2022-12-29T23:31:30.300Z,14.60
2022-12-29T23:33:59.205Z,17.10
2022-12-29T23:36:27.600Z,15.20
2022-12-29T23:38:55.888Z,16.90
2022-12-29T23:41:24.463Z,14.40
2022-12-29T23:43:52.458Z,12.00
2022-12-29T23:46:22.020Z,12.30
2022-12-29T23:48:50.208Z,12.40
2022-12-29T23:51:18.386Z,12.30
2022-12-29T23:53:47.069Z,12.70
2022-12-29T23:56:16.404Z,12.60
2022-12-29T23:58:44.440Z,11.90
